sensor_id;sensor_type;location;lat;lon;timestamp;pressure;altitude;pressure_sealevel;temperature;humidity
7660;BME280;3872;47.902;8.162;2023-04-24T00:02:35;90969.78;;;12.54;100.00
7660;BME280;3872;47.902;8.162;2023-04-24T00:05:09;90980.50;;;11.42;100.00
7660;BME280;3872;47.902;8.162;2023-04-24T00:07:42;90965.88;;;12.28;100.00
7660;BME280;3872;47.902;8.162;2023-04-24T00:10:14;90979.47;;;11.55;100.00
7660;BME280;3872;47.902;8.162;2023-04-24T00:12:47;90975.22;;;12.37;100.00
7660;BME280;3872;47.902;8.162;2023-04-24T00:15:19;90981.00;;;12.19;100.00
7660;BME280;3872;47.902;8.162;2023-04-24T00:17:50;90969.63;;;12.06;100.00
7660;BME280;3872;47.902;8.162;2023-04-24T00:20:23;90977.91;;;11.54;100.00
7660;BME280;3872;47.902;8.162;2023-04-24T00:22:56;90974.59;;;12.07;100.00
7660;BME280;3872;47.902;8.162;2023-04-24T00:25:30;90970.09;;;11.87;100.00
7660;BME280;3872;47.902;8.162;2023-04-24T00:28:00;90971.56;;;12.30;100.00
7660;BME280;3872;47.902;8.162;2023-04-24T00:30:35;90971.72;;;12.00;100.00
7660;BME280;3872;47.902;8.162;2023-04-24T00:33:10;90970.16;;;11.58;100.00
7660;BME280;3872;47.902;8.162;2023-04-24T00:35:45;90968.47;;;11.95;100.00
7660;BME280;3872;47.902;8.162;2023-04-24T00:38:22;90965.91;;;12.52;100.00
7660;BME280;3872;47.902;8.162;2023-04-24T00:40:52;90957.84;;;12.36;100.00
7660;BME280;3872;47.902;8.162;2023-04-24T00:43:28;90968.94;;;12.30;100.00
7660;BME280;3872;47.902;8.162;2023-04-24T00:46:01;90973.56;;;12.33;100.00
7660;BME280;3872;47.902;8.162;2023-04-24T00:48:39;90964.06;;;12.65;99.36
7660;BME280;3872;47.902;8.162;2023-04-24T00:51:21;90964.38;;;12.06;100.00
7660;BME280;3872;47.902;8.162;2023-04-24T00:53:57;90969.91;;;11.92;100.00
7660;BME280;3872;47.902;8.162;2023-04-24T00:56:33;90965.22;;;11.98;100.00
7660;BME280;3872;47.902;8.162;2023-04-24T00:59:05;90959.16;;;11.56;100.00
7660;BME280;3872;47.902;8.162;2023-04-24T01:01:35;90967.03;;;11.85;100.00
7660;BME280;3872;47.902;8.162;2023-04-24T01:04:15;90973.31;;;12.13;100.00
7660;BME280;3872;47.902;8.162;2023-04-24T01:06:46;90969.22;;;12.49;100.00
7660;BME280;3872;47.902;8.162;2023-04-24T01:09:25;90968.44;;;12.15;100.00
7660;BME280;3872;47.902;8.162;2023-04-24T01:12:01;90969.50;;;11.61;100.00
7660;BME280;3872;47.902;8.162;2023-04-24T01:14:41;90961.97;;;12.13;100.00
7660;BME280;3872;47.902;8.162;2023-04-24T01:17:16;90959.63;;;11.58;100.00
7660;BME280;3872;47.902;8.162;2023-04-24T01:19:51;90950.94;;;11.99;100.00
7660;BME280;3872;47.902;8.162;2023-04-24T01:22:29;90962.44;;;11.94;100.00
7660;BME280;3872;47.902;8.162;2023-04-24T01:25:06;90947.84;;;12.30;100.00
7660;BME280;3872;47.902;8.162;2023-04-24T01:27:38;90955.19;;;11.70;100.00
7660;BME280;3872;47.902;8.162;2023-04-24T01:30:13;90951.94;;;12.39;100.00
7660;BME280;3872;47.902;8.162;2023-04-24T01:32:46;90947.88;;;11.76;100.00
7660;BME280;3872;47.902;8.162;2023-04-24T01:35:20;90958.56;;;10.07;100.00
7660;BME280;3872;47.902;8.162;2023-04-24T01:37:56;90957.19;;;10.65;100.00
7660;BME280;3872;47.902;8.162;2023-04-24T01:40:32;90952.44;;;11.17;100.00
7660;BME280;3872;47.902;8.162;2023-04-24T01:43:02;90952.13;;;10.89;100.00
7660;BME280;3872;47.902;8.162;2023-04-24T01:45:36;90954.25;;;11.25;100.00
7660;BME280;3872;47.902;8.162;2023-04-24T01:48:18;90946.31;;;11.75;100.00
7660;BME280;3872;47.902;8.162;2023-04-24T01:50:48;90943.66;;;11.54;100.00
7660;BME280;3872;47.902;8.162;2023-04-24T01:53:29;90946.09;;;11.38;100.00
7660;BME280;3872;47.902;8.162;2023-04-24T01:55:58;90943.75;;;12.20;100.00
7660;BME280;3872;47.902;8.162;2023-04-24T01:58:30;90961.41;;;12.07;100.00
7660;BME280;3872;47.902;8.162;2023-04-24T02:01:03;90951.41;;;11.30;100.00
7660;BME280;3872;47.902;8.162;2023-04-24T02:03:33;90952.88;;;11.19;100.00
7660;BME280;3872;47.902;8.162;2023-04-24T02:06:07;90956.91;;;11.46;100.00
7660;BME280;3872;47.902;8.162;2023-04-24T02:08:38;90955.59;;;11.52;100.00
7660;BME280;3872;47.902;8.162;2023-04-24T02:11:20;90941.47;;;12.31;100.00
7660;BME280;3872;47.902;8.162;2023-04-24T02:13:52;90948.81;;;11.71;100.00
7660;BME280;3872;47.902;8.162;2023-04-24T02:16:23;90945.53;;;11.95;100.00
7660;BME280;3872;47.902;8.162;2023-04-24T02:18:52;90936.72;;;11.91;100.00
7660;BME280;3872;47.902;8.162;2023-04-24T02:21:22;90936.94;;;11.86;100.00
7660;BME280;3872;47.902;8.162;2023-04-24T02:23:54;90925.81;;;12.13;100.00
7660;BME280;3872;47.902;8.162;2023-04-24T02:26:27;90934.34;;;11.36;100.00
7660;BME280;3872;47.902;8.162;2023-04-24T02:28:59;90935.50;;;11.68;100.00
7660;BME280;3872;47.902;8.162;2023-04-24T02:31:28;90938.25;;;11.30;100.00
7660;BME280;3872;47.902;8.162;2023-04-24T02:33:58;90930.69;;;11.70;100.00
7660;BME280;3872;47.902;8.162;2023-04-24T02:36:32;90926.41;;;11.86;100.00
7660;BME280;3872;47.902;8.162;2023-04-24T02:39:06;90954.69;;;11.77;100.00
7660;BME280;3872;47.902;8.162;2023-04-24T02:41:36;90951.38;;;11.59;100.00
7660;BME280;3872;47.902;8.162;2023-04-24T02:44:05;90947.28;;;12.24;100.00
7660;BME280;3872;47.902;8.162;2023-04-24T02:46:42;90951.41;;;12.46;100.00
7660;BME280;3872;47.902;8.162;2023-04-24T02:49:17;90949.50;;;12.01;100.00
7660;BME280;3872;47.902;8.162;2023-04-24T02:51:49;90949.50;;;12.01;100.00
7660;BME280;3872;47.902;8.162;2023-04-24T02:54:23;90949.91;;;11.91;100.00
7660;BME280;3872;47.902;8.162;2023-04-24T02:56:55;90952.06;;;11.27;100.00
7660;BME280;3872;47.902;8.162;2023-04-24T02:59:25;90953.50;;;11.45;100.00
7660;BME280;3872;47.902;8.162;2023-04-24T03:01:57;90957.13;;;10.73;100.00
7660;BME280;3872;47.902;8.162;2023-04-24T03:04:36;90959.75;;;10.35;100.00
7660;BME280;3872;47.902;8.162;2023-04-24T03:07:07;90966.06;;;11.19;100.00
7660;BME280;3872;47.902;8.162;2023-04-24T03:09:42;90964.28;;;11.73;100.00
7660;BME280;3872;47.902;8.162;2023-04-24T03:12:17;90958.22;;;11.31;100.00
7660;BME280;3872;47.902;8.162;2023-04-24T03:14:47;90956.53;;;11.56;100.00
7660;BME280;3872;47.902;8.162;2023-04-24T03:17:18;90949.53;;;10.42;100.00
7660;BME280;3872;47.902;8.162;2023-04-24T03:19:50;90948.97;;;11.25;100.00
7660;BME280;3872;47.902;8.162;2023-04-24T03:22:21;90940.03;;;11.17;100.00
7660;BME280;3872;47.902;8.162;2023-04-24T03:24:54;90930.38;;;10.33;100.00
7660;BME280;3872;47.902;8.162;2023-04-24T03:27:24;90938.25;;;10.80;100.00
7660;BME280;3872;47.902;8.162;2023-04-24T03:30:01;90935.44;;;10.38;100.00
7660;BME280;3872;47.902;8.162;2023-04-24T03:32:49;90944.94;;;10.69;100.00
7660;BME280;3872;47.902;8.162;2023-04-24T03:35:26;90942.25;;;11.15;100.00
7660;BME280;3872;47.902;8.162;2023-04-24T03:38:02;90934.38;;;11.07;100.00
7660;BME280;3872;47.902;8.162;2023-04-24T03:40:57;90944.63;;;11.29;100.00
7660;BME280;3872;47.902;8.162;2023-04-24T03:43:50;90940.03;;;11.17;100.00
7660;BME280;3872;47.902;8.162;2023-04-24T03:46:22;90946.66;;;11.44;100.00
7660;BME280;3872;47.902;8.162;2023-04-24T03:48:58;90956.47;;;10.47;100.00
7660;BME280;3872;47.902;8.162;2023-04-24T03:51:42;90955.75;;;10.29;100.00
7660;BME280;3872;47.902;8.162;2023-04-24T03:54:39;90956.00;;;10.91;100.00
7660;BME280;3872;47.902;8.162;2023-04-24T03:57:30;90953.75;;;11.02;100.00
7660;BME280;3872;47.902;8.162;2023-04-24T04:00:20;90964.63;;;10.63;100.00
7660;BME280;3872;47.902;8.162;2023-04-24T04:03:03;90965.97;;;10.13;100.00
7660;BME280;3872;47.902;8.162;2023-04-24T04:05:30;90962.84;;;10.37;100.00
7660;BME280;3872;47.902;8.162;2023-04-24T04:07:57;90977.19;;;10.48;100.00
7660;BME280;3872;47.902;8.162;2023-04-24T04:10:24;90979.44;;;10.67;100.00
7660;BME280;3872;47.902;8.162;2023-04-24T04:12:51;90978.47;;;10.80;100.00
7660;BME280;3872;47.902;8.162;2023-04-24T04:15:18;90980.41;;;11.01;100.00
7660;BME280;3872;47.902;8.162;2023-04-24T04:17:44;90990.78;;;10.59;100.00
7660;BME280;3872;47.902;8.162;2023-04-24T04:20:11;90991.34;;;10.01;100.00
7660;BME280;3872;47.902;8.162;2023-04-24T04:22:39;90995.81;;;10.09;100.00
7660;BME280;3872;47.902;8.162;2023-04-24T04:25:08;90994.91;;;9.79;100.00
7660;BME280;3872;47.902;8.162;2023-04-24T04:27:35;91010.81;;;10.08;100.00
7660;BME280;3872;47.902;8.162;2023-04-24T04:30:09;91012.78;;;10.46;100.00
7660;BME280;3872;47.902;8.162;2023-04-24T04:32:45;91010.81;;;10.00;100.00
7660;BME280;3872;47.902;8.162;2023-04-24T04:35:12;91004.16;;;10.83;100.00
7660;BME280;3872;47.902;8.162;2023-04-24T04:37:39;91010.88;;;10.72;100.00
7660;BME280;3872;47.902;8.162;2023-04-24T04:40:17;91021.81;;;9.93;100.00
7660;BME280;3872;47.902;8.162;2023-04-24T04:42:56;91025.81;;;9.99;100.00
7660;BME280;3872;47.902;8.162;2023-04-24T04:45:26;91033.25;;;10.06;100.00
7660;BME280;3872;47.902;8.162;2023-04-24T04:48:21;91034.88;;;10.62;100.00
7660;BME280;3872;47.902;8.162;2023-04-24T04:50:48;91041.88;;;9.63;100.00
7660;BME280;3872;47.902;8.162;2023-04-24T04:53:16;91039.41;;;10.10;100.00
7660;BME280;3872;47.902;8.162;2023-04-24T04:55:42;91040.81;;;10.25;100.00
7660;BME280;3872;47.902;8.162;2023-04-24T04:58:12;91049.16;;;10.44;100.00
7660;BME280;3872;47.902;8.162;2023-04-24T05:00:40;91048.22;;;10.05;100.00
7660;BME280;3872;47.902;8.162;2023-04-24T05:03:30;91053.19;;;10.15;100.00
7660;BME280;3872;47.902;8.162;2023-04-24T05:06:05;91054.09;;;10.54;100.00
7660;BME280;3872;47.902;8.162;2023-04-24T05:08:34;91057.19;;;9.96;100.00
7660;BME280;3872;47.902;8.162;2023-04-24T05:11:03;91061.06;;;10.41;100.00
7660;BME280;3872;47.902;8.162;2023-04-24T05:13:31;91067.53;;;9.75;100.00
7660;BME280;3872;47.902;8.162;2023-04-24T05:15:59;91069.94;;;9.46;100.00
7660;BME280;3872;47.902;8.162;2023-04-24T05:18:27;91062.28;;;10.61;100.00
7660;BME280;3872;47.902;8.162;2023-04-24T05:20:54;91067.31;;;10.92;100.00
7660;BME280;3872;47.902;8.162;2023-04-24T05:23:20;91074.03;;;9.12;100.00
7660;BME280;3872;47.902;8.162;2023-04-24T05:25:51;91068.50;;;10.39;100.00
7660;BME280;3872;47.902;8.162;2023-04-24T05:28:18;91070.47;;;10.59;100.00
7660;BME280;3872;47.902;8.162;2023-04-24T05:30:52;91077.31;;;10.00;100.00
7660;BME280;3872;47.902;8.162;2023-04-24T05:33:21;91074.81;;;10.55;100.00
7660;BME280;3872;47.902;8.162;2023-04-24T05:35:48;91083.91;;;9.63;100.00
7660;BME280;3872;47.902;8.162;2023-04-24T05:38:15;91078.88;;;10.27;100.00
7660;BME280;3872;47.902;8.162;2023-04-24T05:40:43;91082.16;;;9.41;100.00
7660;BME280;3872;47.902;8.162;2023-04-24T05:43:09;91079.50;;;11.05;100.00
7660;BME280;3872;47.902;8.162;2023-04-24T05:45:36;91094.13;;;10.68;100.00
7660;BME280;3872;47.902;8.162;2023-04-24T05:48:03;91089.78;;;10.81;100.00
7660;BME280;3872;47.902;8.162;2023-04-24T05:50:31;91096.88;;;10.89;100.00
7660;BME280;3872;47.902;8.162;2023-04-24T05:52:57;91094.25;;;10.89;100.00
7660;BME280;3872;47.902;8.162;2023-04-24T05:55:29;91100.34;;;10.72;100.00
7660;BME280;3872;47.902;8.162;2023-04-24T05:57:56;91097.72;;;10.03;100.00
7660;BME280;3872;47.902;8.162;2023-04-24T06:00:24;91099.28;;;10.65;100.00
7660;BME280;3872;47.902;8.162;2023-04-24T06:02:59;91108.56;;;10.53;100.00
7660;BME280;3872;47.902;8.162;2023-04-24T06:05:27;91115.97;;;10.17;100.00
7660;BME280;3872;47.902;8.162;2023-04-24T06:07:54;91113.19;;;10.39;91.93
7660;BME280;3872;47.902;8.162;2023-04-24T06:10:23;91121.50;;;9.72;100.00
7660;BME280;3872;47.902;8.162;2023-04-24T06:12:50;91124.81;;;10.55;94.77
7660;BME280;3872;47.902;8.162;2023-04-24T06:15:17;91125.13;;;9.54;100.00
7660;BME280;3872;47.902;8.162;2023-04-24T06:17:54;91128.19;;;10.13;100.00
7660;BME280;3872;47.902;8.162;2023-04-24T06:20:21;91129.44;;;9.41;100.00
7660;BME280;3872;47.902;8.162;2023-04-24T06:22:47;91122.41;;;9.76;100.00
7660;BME280;3872;47.902;8.162;2023-04-24T06:25:15;91120.31;;;10.56;94.90
7660;BME280;3872;47.902;8.162;2023-04-24T06:27:42;91121.25;;;10.51;96.91
7660;BME280;3872;47.902;8.162;2023-04-24T06:30:09;91123.28;;;10.29;100.00
7660;BME280;3872;47.902;8.162;2023-04-24T06:32:36;91134.38;;;10.08;100.00
7660;BME280;3872;47.902;8.162;2023-04-24T06:35:03;91119.97;;;9.97;100.00
7660;BME280;3872;47.902;8.162;2023-04-24T06:37:32;91133.13;;;10.14;100.00
7660;BME280;3872;47.902;8.162;2023-04-24T06:39:58;91130.28;;;11.14;92.74
7660;BME280;3872;47.902;8.162;2023-04-24T06:42:26;91135.63;;;10.80;95.75
7660;BME280;3872;47.902;8.162;2023-04-24T06:44:54;91139.53;;;9.74;100.00
7660;BME280;3872;47.902;8.162;2023-04-24T06:47:21;91151.00;;;9.78;100.00
7660;BME280;3872;47.902;8.162;2023-04-24T06:49:47;91145.06;;;10.20;99.75
7660;BME280;3872;47.902;8.162;2023-04-24T06:52:16;91140.09;;;10.79;93.48
7660;BME280;3872;47.902;8.162;2023-04-24T06:54:42;91156.06;;;10.66;92.84
7660;BME280;3872;47.902;8.162;2023-04-24T06:57:09;91171.78;;;9.49;100.00
7660;BME280;3872;47.902;8.162;2023-04-24T06:59:38;91175.66;;;9.20;100.00
7660;BME280;3872;47.902;8.162;2023-04-24T07:02:04;91174.56;;;8.59;100.00
7660;BME280;3872;47.902;8.162;2023-04-24T07:04:31;91169.63;;;9.51;100.00
7660;BME280;3872;47.902;8.162;2023-04-24T07:06:58;91174.97;;;9.06;100.00
7660;BME280;3872;47.902;8.162;2023-04-24T07:09:25;91174.06;;;9.41;100.00
7660;BME280;3872;47.902;8.162;2023-04-24T07:11:52;91173.38;;;10.24;100.00
7660;BME280;3872;47.902;8.162;2023-04-24T07:14:19;91175.72;;;10.77;97.81
7660;BME280;3872;47.902;8.162;2023-04-24T07:16:47;91172.75;;;9.61;100.00
7660;BME280;3872;47.902;8.162;2023-04-24T07:19:14;91165.97;;;8.98;100.00
7660;BME280;3872;47.902;8.162;2023-04-24T07:21:40;91171.56;;;9.76;99.64
7660;BME280;3872;47.902;8.162;2023-04-24T07:24:07;91171.56;;;10.58;93.70
7660;BME280;3872;47.902;8.162;2023-04-24T07:26:36;91178.31;;;10.25;91.26
7660;BME280;3872;47.902;8.162;2023-04-24T07:29:03;91173.25;;;10.29;85.81
7660;BME280;3872;47.902;8.162;2023-04-24T07:31:30;91176.44;;;8.68;100.00
7660;BME280;3872;47.902;8.162;2023-04-24T07:33:58;91183.97;;;9.45;100.00
7660;BME280;3872;47.902;8.162;2023-04-24T07:36:25;91187.75;;;10.17;93.29
7660;BME280;3872;47.902;8.162;2023-04-24T07:38:54;91187.13;;;8.93;100.00
7660;BME280;3872;47.902;8.162;2023-04-24T07:41:20;91193.72;;;9.44;97.26
7660;BME280;3872;47.902;8.162;2023-04-24T07:43:47;91208.44;;;9.23;96.06
7660;BME280;3872;47.902;8.162;2023-04-24T07:46:13;91221.63;;;9.40;98.85
7660;BME280;3872;47.902;8.162;2023-04-24T07:48:40;91210.47;;;9.03;95.55
7660;BME280;3872;47.902;8.162;2023-04-24T07:51:08;91211.25;;;9.66;91.87
7660;BME280;3872;47.902;8.162;2023-04-24T07:53:35;91213.94;;;10.48;90.15
7660;BME280;3872;47.902;8.162;2023-04-24T07:56:01;91210.38;;;10.96;79.36
7660;BME280;3872;47.902;8.162;2023-04-24T07:58:28;91222.88;;;10.30;82.46
7660;BME280;3872;47.902;8.162;2023-04-24T08:00:54;91217.16;;;10.19;83.45
7660;BME280;3872;47.902;8.162;2023-04-24T08:03:21;91216.06;;;9.81;88.13
7660;BME280;3872;47.902;8.162;2023-04-24T08:05:47;91221.31;;;9.81;82.34
7660;BME280;3872;47.902;8.162;2023-04-24T08:08:17;91232.03;;;10.67;79.62
7660;BME280;3872;47.902;8.162;2023-04-24T08:10:44;91228.75;;;10.27;77.49
7660;BME280;3872;47.902;8.162;2023-04-24T08:13:10;91234.47;;;9.41;82.71
7660;BME280;3872;47.902;8.162;2023-04-24T08:15:37;91234.00;;;10.18;81.27
7660;BME280;3872;47.902;8.162;2023-04-24T08:18:04;91235.13;;;10.35;77.66
7660;BME280;3872;47.902;8.162;2023-04-24T08:20:30;91252.91;;;10.29;73.97
7660;BME280;3872;47.902;8.162;2023-04-24T08:22:57;91265.69;;;9.21;79.61
7660;BME280;3872;47.902;8.162;2023-04-24T08:25:25;91255.44;;;9.64;76.17
7660;BME280;3872;47.902;8.162;2023-04-24T08:27:51;91256.13;;;10.26;72.94
7660;BME280;3872;47.902;8.162;2023-04-24T08:30:18;91261.94;;;9.13;78.06
7660;BME280;3872;47.902;8.162;2023-04-24T08:32:45;91260.50;;;9.29;76.25
7660;BME280;3872;47.902;8.162;2023-04-24T08:35:12;91252.78;;;10.51;72.01
7660;BME280;3872;47.902;8.162;2023-04-24T08:37:38;91254.59;;;9.86;74.38
7660;BME280;3872;47.902;8.162;2023-04-24T08:40:13;91265.31;;;10.63;68.10
7660;BME280;3872;47.902;8.162;2023-04-24T08:42:43;91255.25;;;10.74;68.96
7660;BME280;3872;47.902;8.162;2023-04-24T08:45:11;91260.22;;;10.58;63.41
7660;BME280;3872;47.902;8.162;2023-04-24T08:47:38;91277.47;;;9.85;68.27
7660;BME280;3872;47.902;8.162;2023-04-24T08:50:06;91270.63;;;9.75;73.51
7660;BME280;3872;47.902;8.162;2023-04-24T08:52:33;91269.63;;;10.02;67.94
7660;BME280;3872;47.902;8.162;2023-04-24T08:55:01;91286.06;;;10.16;66.87
7660;BME280;3872;47.902;8.162;2023-04-24T08:57:28;91271.31;;;10.38;61.08
7660;BME280;3872;47.902;8.162;2023-04-24T08:59:57;91279.69;;;10.48;63.17
7660;BME280;3872;47.902;8.162;2023-04-24T09:02:26;91294.03;;;10.25;62.93
7660;BME280;3872;47.902;8.162;2023-04-24T09:04:53;91282.88;;;9.89;65.89
7660;BME280;3872;47.902;8.162;2023-04-24T09:07:19;91283.81;;;10.24;65.88
7660;BME280;3872;47.902;8.162;2023-04-24T09:09:50;91282.81;;;10.68;60.96
7660;BME280;3872;47.902;8.162;2023-04-24T09:12:17;91293.00;;;10.43;63.93
7660;BME280;3872;47.902;8.162;2023-04-24T09:14:44;91286.53;;;9.70;68.22
7660;BME280;3872;47.902;8.162;2023-04-24T09:17:12;91288.25;;;10.14;66.77
7660;BME280;3872;47.902;8.162;2023-04-24T09:19:39;91300.88;;;9.42;73.12
7660;BME280;3872;47.902;8.162;2023-04-24T09:22:06;91302.84;;;9.59;70.01
7660;BME280;3872;47.902;8.162;2023-04-24T09:24:34;91311.81;;;9.66;70.34
7660;BME280;3872;47.902;8.162;2023-04-24T09:27:00;91307.09;;;9.01;73.92
7660;BME280;3872;47.902;8.162;2023-04-24T09:29:28;91317.28;;;8.67;75.18
7660;BME280;3872;47.902;8.162;2023-04-24T09:31:55;91325.38;;;9.29;73.25
7660;BME280;3872;47.902;8.162;2023-04-24T09:34:24;91316.69;;;10.12;72.42
7660;BME280;3872;47.902;8.162;2023-04-24T09:36:51;91323.19;;;9.31;79.77
7660;BME280;3872;47.902;8.162;2023-04-24T09:39:18;91314.94;;;9.68;74.59
7660;BME280;3872;47.902;8.162;2023-04-24T09:41:47;91320.13;;;8.57;83.07
7660;BME280;3872;47.902;8.162;2023-04-24T09:44:15;91327.81;;;8.89;82.23
7660;BME280;3872;47.902;8.162;2023-04-24T09:46:43;91321.63;;;9.52;74.23
7660;BME280;3872;47.902;8.162;2023-04-24T09:49:12;91320.09;;;9.07;79.34
7660;BME280;3872;47.902;8.162;2023-04-24T09:51:42;91319.75;;;9.75;70.75
7660;BME280;3872;47.902;8.162;2023-04-24T09:54:14;91322.63;;;9.34;73.69
7660;BME280;3872;47.902;8.162;2023-04-24T09:56:43;91326.31;;;9.55;72.90
7660;BME280;3872;47.902;8.162;2023-04-24T09:59:11;91337.38;;;9.74;72.73
7660;BME280;3872;47.902;8.162;2023-04-24T10:01:37;91338.25;;;9.39;76.39
7660;BME280;3872;47.902;8.162;2023-04-24T10:04:15;91335.72;;;10.49;69.29
7660;BME280;3872;47.902;8.162;2023-04-24T10:06:43;91341.13;;;10.44;65.70
7660;BME280;3872;47.902;8.162;2023-04-24T10:09:10;91340.00;;;9.74;72.04
7660;BME280;3872;47.902;8.162;2023-04-24T10:11:41;91351.38;;;9.61;72.03
7660;BME280;3872;47.902;8.162;2023-04-24T10:14:09;91369.88;;;9.34;75.63
7660;BME280;3872;47.902;8.162;2023-04-24T10:16:37;91371.41;;;8.63;79.49
7660;BME280;3872;47.902;8.162;2023-04-24T10:19:04;91370.69;;;9.88;73.55
7660;BME280;3872;47.902;8.162;2023-04-24T10:21:31;91359.84;;;9.14;73.61
7660;BME280;3872;47.902;8.162;2023-04-24T10:23:59;91366.38;;;9.92;67.96
7660;BME280;3872;47.902;8.162;2023-04-24T10:26:29;91374.72;;;8.55;78.36
7660;BME280;3872;47.902;8.162;2023-04-24T10:28:57;91373.84;;;8.73;75.64
7660;BME280;3872;47.902;8.162;2023-04-24T10:31:25;91375.13;;;9.34;70.32
7660;BME280;3872;47.902;8.162;2023-04-24T10:33:53;91377.53;;;9.44;69.87
7660;BME280;3872;47.902;8.162;2023-04-24T10:36:22;91378.78;;;9.47;68.02
7660;BME280;3872;47.902;8.162;2023-04-24T10:38:52;91375.13;;;9.34;67.63
7660;BME280;3872;47.902;8.162;2023-04-24T10:41:25;91383.81;;;9.88;67.60
7660;BME280;3872;47.902;8.162;2023-04-24T10:44:04;91373.44;;;11.87;58.36
7660;BME280;3872;47.902;8.162;2023-04-24T10:46:33;91374.72;;;11.29;58.38
7660;BME280;3872;47.902;8.162;2023-04-24T10:49:03;91370.13;;;10.22;61.52
7660;BME280;3872;47.902;8.162;2023-04-24T10:51:47;91380.69;;;9.55;65.47
7660;BME280;3872;47.902;8.162;2023-04-24T10:54:24;91374.31;;;10.71;58.39
7660;BME280;3872;47.902;8.162;2023-04-24T10:57:26;91382.31;;;10.17;63.62
7660;BME280;3872;47.902;8.162;2023-04-24T11:02:56;91398.72;;;9.48;64.23
7660;BME280;3872;47.902;8.162;2023-04-24T11:05:59;91400.72;;;9.95;61.10
7660;BME280;3872;47.902;8.162;2023-04-24T11:08:28;91385.13;;;9.99;61.87
7660;BME280;3872;47.902;8.162;2023-04-24T11:11:03;91396.13;;;10.01;61.67
7660;BME280;3872;47.902;8.162;2023-04-24T11:14:05;91394.72;;;10.03;60.85
7660;BME280;3872;47.902;8.162;2023-04-24T11:16:41;91386.50;;;10.58;59.20
7660;BME280;3872;47.902;8.162;2023-04-24T11:19:16;91388.88;;;10.06;58.86
7660;BME280;3872;47.902;8.162;2023-04-24T11:21:47;91386.41;;;10.32;58.03
7660;BME280;3872;47.902;8.162;2023-04-24T11:24:36;91377.00;;;12.00;54.28
7660;BME280;3872;47.902;8.162;2023-04-24T11:27:06;91386.19;;;10.20;59.57
7660;BME280;3872;47.902;8.162;2023-04-24T11:29:41;91381.66;;;11.17;57.04
7660;BME280;3872;47.902;8.162;2023-04-24T11:32:15;91388.25;;;10.71;60.48
7660;BME280;3872;47.902;8.162;2023-04-24T11:34:45;91393.44;;;10.54;60.13
7660;BME280;3872;47.902;8.162;2023-04-24T11:37:13;91395.66;;;10.69;59.28
7660;BME280;3872;47.902;8.162;2023-04-24T11:39:40;91407.19;;;9.45;64.50
7660;BME280;3872;47.902;8.162;2023-04-24T11:42:07;91407.84;;;9.50;66.16
7660;BME280;3872;47.902;8.162;2023-04-24T11:44:33;91402.69;;;10.43;61.91
7660;BME280;3872;47.902;8.162;2023-04-24T11:47:02;91416.72;;;10.30;62.27
7660;BME280;3872;47.902;8.162;2023-04-24T11:49:28;91416.97;;;10.50;60.95
7660;BME280;3872;47.902;8.162;2023-04-24T11:51:55;91395.75;;;11.12;59.66
7660;BME280;3872;47.902;8.162;2023-04-24T11:54:23;91413.75;;;11.53;56.81
7660;BME280;3872;47.902;8.162;2023-04-24T11:56:49;91409.94;;;10.77;61.46
7660;BME280;3872;47.902;8.162;2023-04-24T11:59:16;91407.53;;;10.18;62.88
7660;BME280;3872;47.902;8.162;2023-04-24T12:01:43;91410.00;;;9.93;66.85
7660;BME280;3872;47.902;8.162;2023-04-24T12:04:11;91397.16;;;11.53;59.86
7660;BME280;3872;47.902;8.162;2023-04-24T12:06:37;91409.63;;;10.39;64.00
7660;BME280;3872;47.902;8.162;2023-04-24T12:09:04;91399.59;;;10.97;62.44
7660;BME280;3872;47.902;8.162;2023-04-24T12:11:33;91415.31;;;10.63;66.68
7660;BME280;3872;47.902;8.162;2023-04-24T12:14:10;91421.88;;;9.68;66.28
7660;BME280;3872;47.902;8.162;2023-04-24T12:16:36;91416.31;;;10.14;65.02
7660;BME280;3872;47.902;8.162;2023-04-24T12:19:03;91409.19;;;10.37;65.08
7660;BME280;3872;47.902;8.162;2023-04-24T12:21:31;91404.38;;;10.39;63.61
7660;BME280;3872;47.902;8.162;2023-04-24T12:23:57;91405.09;;;10.22;65.33
7660;BME280;3872;47.902;8.162;2023-04-24T12:26:24;91408.78;;;10.21;64.92
7660;BME280;3872;47.902;8.162;2023-04-24T12:28:52;91400.19;;;10.77;62.75
7660;BME280;3872;47.902;8.162;2023-04-24T12:31:21;91394.69;;;11.30;59.94
7660;BME280;3872;47.902;8.162;2023-04-24T12:33:47;91390.56;;;10.73;63.17
7660;BME280;3872;47.902;8.162;2023-04-24T12:36:14;91395.16;;;11.15;59.90
7660;BME280;3872;47.902;8.162;2023-04-24T12:38:43;91406.06;;;10.12;64.65
7660;BME280;3872;47.902;8.162;2023-04-24T12:41:13;91392.72;;;10.71;60.72
7660;BME280;3872;47.902;8.162;2023-04-24T12:43:50;91392.69;;;11.27;58.91
7660;BME280;3872;47.902;8.162;2023-04-24T12:46:19;91392.09;;;10.26;63.86
7660;BME280;3872;47.902;8.162;2023-04-24T12:48:45;91386.28;;;10.85;61.05
7660;BME280;3872;47.902;8.162;2023-04-24T12:51:12;91388.00;;;11.07;60.65
7660;BME280;3872;47.902;8.162;2023-04-24T12:53:38;91401.25;;;10.06;64.36
7660;BME280;3872;47.902;8.162;2023-04-24T12:56:05;91391.19;;;10.30;63.38
7660;BME280;3872;47.902;8.162;2023-04-24T12:58:31;91399.34;;;11.42;59.63
7660;BME280;3872;47.902;8.162;2023-04-24T13:00:58;91397.53;;;10.77;61.76
7660;BME280;3872;47.902;8.162;2023-04-24T13:03:27;91400.25;;;9.93;63.15
7660;BME280;3872;47.902;8.162;2023-04-24T13:05:54;91394.63;;;10.79;58.11
7660;BME280;3872;47.902;8.162;2023-04-24T13:08:20;91400.00;;;10.03;60.57
7660;BME280;3872;47.902;8.162;2023-04-24T13:10:47;91393.44;;;11.11;57.40
7660;BME280;3872;47.902;8.162;2023-04-24T13:13:14;91410.34;;;10.00;63.95
7660;BME280;3872;47.902;8.162;2023-04-24T13:15:40;91404.47;;;10.03;65.46
7660;BME280;3872;47.902;8.162;2023-04-24T13:18:07;91398.34;;;10.16;63.89
7660;BME280;3872;47.902;8.162;2023-04-24T13:20:35;91402.19;;;10.10;63.84
7660;BME280;3872;47.902;8.162;2023-04-24T13:23:01;91395.78;;;9.94;67.51
7660;BME280;3872;47.902;8.162;2023-04-24T13:25:34;91399.34;;;9.98;66.96
7660;BME280;3872;47.902;8.162;2023-04-24T13:28:01;91398.22;;;11.17;61.01
7660;BME280;3872;47.902;8.162;2023-04-24T13:30:27;91387.69;;;10.43;64.39
7660;BME280;3872;47.902;8.162;2023-04-24T13:32:54;91378.69;;;11.10;60.87
7660;BME280;3872;47.902;8.162;2023-04-24T13:35:20;91374.88;;;11.50;59.73
7660;BME280;3872;47.902;8.162;2023-04-24T13:37:48;91374.69;;;11.81;58.41
7660;BME280;3872;47.902;8.162;2023-04-24T13:40:15;91381.22;;;11.92;58.30
7660;BME280;3872;47.902;8.162;2023-04-24T13:42:41;91378.28;;;10.59;62.70